KHUT

Hutchinson Regional Airport

Hutchinson, Kansas, USA
METAR KHUT 181052Z 16012KT 10SM CLR 25/21 A2994 RMK AO2 SLP113 T02500206 $
Observed Flight Rules
Jun-18 @ 10:52 UTC (20 minutes ago) Visual Flight Rules
Wind Visibility Clouds
160° at 12 knots 10 miles
  • Clear skies
Temperatures Readings
Current 25°C / 77°F
Dewpoint 21°C / 70°F
Humidity 79%
Altimeter 29.94" Hg
Pressure 1011.3 hPa
Elevation 467
METAR KHUT 181052Z 16012KT 10SM CLR 25/21 A2994 RMK AO2 SLP113 T02500206 $
Observed Flight Rules
Jun-18 @ 10:52 UTC
(20 minutes ago)
VFR
Wind Visibility
160° at 12 knots 10 miles
Clouds
  • Clear skies
Temperature Dewpoint
25°C / 77°F 21°C / 70°F
Humidity Altimeter Pressure
79% 29.94" Hg 1011.3 hPa